sensor_id;sensor_type;location;lat;lon;timestamp;P1;durP1;ratioP1;P2;durP2;ratioP2
64022;SDS011;50264;52.088;5.296;2023-03-24T00:01:00;10.5;;;4.5;;
64022;SDS011;50264;52.088;5.296;2023-03-24T00:02:37;7.4;;;4.5;;
64022;SDS011;50264;52.088;5.296;2023-03-24T00:04:14;9.0;;;4.7;;
64022;SDS011;50264;52.088;5.296;2023-03-24T00:05:53;8.9;;;4.8;;
64022;SDS011;50264;52.088;5.296;2023-03-24T00:09:07;10.7;;;4.8;;
64022;SDS011;50264;52.088;5.296;2023-03-24T00:10:44;7.8;;;4.7;;
64022;SDS011;50264;52.088;5.296;2023-03-24T00:12:20;6.2;;;4.3;;
64022;SDS011;50264;52.088;5.296;2023-03-24T00:15:33;9.5;;;4.7;;
64022;SDS011;50264;52.088;5.296;2023-03-24T00:17:09;11.8;;;5.11;;
64022;SDS011;50264;52.088;5.296;2023-03-24T00:18:45;7.3;;;4.41;;
64022;SDS011;50264;52.088;5.296;2023-03-24T00:22:00;7.4;;;4.3;;
64022;SDS011;50264;52.088;5.296;2023-03-24T00:23:36;9.0;;;4.5;;
64022;SDS011;50264;52.088;5.296;2023-03-24T00:25:12;5.5;;;3.9;;
64022;SDS011;50264;52.088;5.296;2023-03-24T00:26:49;5.6;;;4.0;;
64022;SDS011;50264;52.088;5.296;2023-03-24T00:30:03;12.2;;;4.5;;
64022;SDS011;50264;52.088;5.296;2023-03-24T00:31:40;9.81;;;4.3;;
64022;SDS011;50264;52.088;5.296;2023-03-24T00:33:17;9.1;;;4.8;;
64022;SDS011;50264;52.088;5.296;2023-03-24T00:36:29;7.2;;;3.7;;
64022;SDS011;50264;52.088;5.296;2023-03-24T00:38:05;6.7;;;4.2;;
64022;SDS011;50264;52.088;5.296;2023-03-24T00:39:41;10.1;;;4.7;;
64022;SDS011;50264;52.088;5.296;2023-03-24T00:42:54;7.2;;;4.61;;
64022;SDS011;50264;52.088;5.296;2023-03-24T00:44:30;6.8;;;4.5;;
64022;SDS011;50264;52.088;5.296;2023-03-24T00:46:09;10.4;;;4.3;;
64022;SDS011;50264;52.088;5.296;2023-03-24T00:47:47;8.2;;;4.0;;
64022;SDS011;50264;52.088;5.296;2023-03-24T00:51:05;7.6;;;4.41;;
64022;SDS011;50264;52.088;5.296;2023-03-24T00:52:42;6.9;;;4.41;;
64022;SDS011;50264;52.088;5.296;2023-03-24T00:54:19;5.6;;;4.41;;
64022;SDS011;50264;52.088;5.296;2023-03-24T00:57:33;8.4;;;4.7;;
64022;SDS011;50264;52.088;5.296;2023-03-24T00:59:09;6.2;;;4.2;;
64022;SDS011;50264;52.088;5.296;2023-03-24T01:00:45;6.3;;;4.3;;
64022;SDS011;50264;52.088;5.296;2023-03-24T01:02:25;6.1;;;4.3;;
64022;SDS011;50264;52.088;5.296;2023-03-24T01:05:40;5.7;;;4.41;;
64022;SDS011;50264;52.088;5.296;2023-03-24T01:07:16;5.4;;;3.7;;
64022;SDS011;50264;52.088;5.296;2023-03-24T01:08:52;7.0;;;4.1;;
64022;SDS011;50264;52.088;5.296;2023-03-24T01:12:10;6.1;;;4.1;;
64022;SDS011;50264;52.088;5.296;2023-03-24T01:13:46;7.1;;;4.3;;
64022;SDS011;50264;52.088;5.296;2023-03-24T01:15:24;9.1;;;4.3;;
64022;SDS011;50264;52.088;5.296;2023-03-24T01:17:06;7.1;;;3.9;;
64022;SDS011;50264;52.088;5.296;2023-03-24T01:20:19;6.0;;;4.0;;
64022;SDS011;50264;52.088;5.296;2023-03-24T01:21:57;5.8;;;4.2;;
64022;SDS011;50264;52.088;5.296;2023-03-24T01:23:34;8.71;;;4.1;;
64022;SDS011;50264;52.088;5.296;2023-03-24T01:26:48;7.0;;;4.0;;
64022;SDS011;50264;52.088;5.296;2023-03-24T01:28:24;6.1;;;4.1;;
64022;SDS011;50264;52.088;5.296;2023-03-24T01:30:00;8.6;;;4.41;;
64022;SDS011;50264;52.088;5.296;2023-03-24T01:31:38;7.7;;;4.3;;
64022;SDS011;50264;52.088;5.296;2023-03-24T01:34:52;6.5;;;4.41;;
64022;SDS011;50264;52.088;5.296;2023-03-24T01:36:28;5.0;;;3.9;;
64022;SDS011;50264;52.088;5.296;2023-03-24T01:38:04;7.4;;;4.1;;
64022;SDS011;50264;52.088;5.296;2023-03-24T01:41:18;8.4;;;4.0;;
64022;SDS011;50264;52.088;5.296;2023-03-24T01:42:55;4.91;;;4.2;;
64022;SDS011;50264;52.088;5.296;2023-03-24T01:44:32;6.1;;;4.2;;
64022;SDS011;50264;52.088;5.296;2023-03-24T01:47:52;6.1;;;4.5;;
64022;SDS011;50264;52.088;5.296;2023-03-24T01:49:30;9.5;;;4.7;;
64022;SDS011;50264;52.088;5.296;2023-03-24T01:51:11;7.5;;;4.3;;
64022;SDS011;50264;52.088;5.296;2023-03-24T01:52:51;5.0;;;4.1;;
64022;SDS011;50264;52.088;5.296;2023-03-24T01:56:08;10.21;;;4.61;;
64022;SDS011;50264;52.088;5.296;2023-03-24T01:57:48;10.21;;;4.61;;
64022;SDS011;50264;52.088;5.296;2023-03-24T01:59:29;11.4;;;4.61;;
64022;SDS011;50264;52.088;5.296;2023-03-24T02:01:09;7.0;;;5.0;;
64022;SDS011;50264;52.088;5.296;2023-03-24T02:04:25;6.6;;;4.3;;
64022;SDS011;50264;52.088;5.296;2023-03-24T02:06:01;6.6;;;4.1;;
64022;SDS011;50264;52.088;5.296;2023-03-24T02:07:38;6.9;;;5.0;;
64022;SDS011;50264;52.088;5.296;2023-03-24T02:09:20;6.7;;;5.3;;
64022;SDS011;50264;52.088;5.296;2023-03-24T02:12:35;6.0;;;4.3;;
64022;SDS011;50264;52.088;5.296;2023-03-24T02:14:11;5.9;;;4.41;;
64022;SDS011;50264;52.088;5.296;2023-03-24T02:15:52;7.5;;;4.61;;
64022;SDS011;50264;52.088;5.296;2023-03-24T02:17:51;5.5;;;4.7;;
64022;SDS011;50264;52.088;5.296;2023-03-24T02:23:19;6.3;;;4.8;;
64022;SDS011;50264;52.088;5.296;2023-03-24T02:27:40;5.9;;;4.5;;
64022;SDS011;50264;52.088;5.296;2023-03-24T02:29:54;6.3;;;4.91;;
64022;SDS011;50264;52.088;5.296;2023-03-24T02:36:18;8.1;;;4.3;;
64022;SDS011;50264;52.088;5.296;2023-03-24T02:39:50;3.7;;;3.4;;
64022;SDS011;50264;52.088;5.296;2023-03-24T02:41:39;3.5;;;3.0;;
64022;SDS011;50264;52.088;5.296;2023-03-24T02:43:32;4.1;;;3.2;;
64022;SDS011;50264;52.088;5.296;2023-03-24T02:45:22;5.4;;;3.0;;
64022;SDS011;50264;52.088;5.296;2023-03-24T02:47:06;3.6;;;2.6;;
64022;SDS011;50264;52.088;5.296;2023-03-24T02:50:46;5.8;;;2.9;;
64022;SDS011;50264;52.088;5.296;2023-03-24T02:52:28;3.7;;;2.7;;
64022;SDS011;50264;52.088;5.296;2023-03-24T02:54:14;2.9;;;2.6;;
64022;SDS011;50264;52.088;5.296;2023-03-24T02:55:55;4.2;;;2.31;;
64022;SDS011;50264;52.088;5.296;2023-03-24T02:57:35;5.6;;;2.4;;
64022;SDS011;50264;52.088;5.296;2023-03-24T03:01:04;4.41;;;2.0;;
64022;SDS011;50264;52.088;5.296;2023-03-24T03:02:45;6.3;;;1.9;;
64022;SDS011;50264;52.088;5.296;2023-03-24T03:04:28;4.61;;;1.6;;
64022;SDS011;50264;52.088;5.296;2023-03-24T03:06:08;2.6;;;1.4;;
64022;SDS011;50264;52.088;5.296;2023-03-24T03:07:49;3.7;;;1.5;;
64022;SDS011;50264;52.088;5.296;2023-03-24T03:11:11;1.7;;;1.4;;
64022;SDS011;50264;52.088;5.296;2023-03-24T03:12:51;6.0;;;1.7;;
64022;SDS011;50264;52.088;5.296;2023-03-24T03:14:33;4.61;;;1.9;;
64022;SDS011;50264;52.088;5.296;2023-03-24T03:16:14;4.7;;;1.3;;
64022;SDS011;50264;52.088;5.296;2023-03-24T03:19:40;5.5;;;1.9;;
64022;SDS011;50264;52.088;5.296;2023-03-24T03:21:21;4.2;;;1.7;;
64022;SDS011;50264;52.088;5.296;2023-03-24T03:23:00;3.4;;;1.5;;
64022;SDS011;50264;52.088;5.296;2023-03-24T03:24:42;4.3;;;1.8;;
64022;SDS011;50264;52.088;5.296;2023-03-24T03:28:01;4.61;;;2.0;;
64022;SDS011;50264;52.088;5.296;2023-03-24T03:29:42;4.61;;;2.1;;
64022;SDS011;50264;52.088;5.296;2023-03-24T03:31:23;8.5;;;2.31;;
64022;SDS011;50264;52.088;5.296;2023-03-24T03:33:04;10.21;;;2.21;;
64022;SDS011;50264;52.088;5.296;2023-03-24T03:36:27;9.4;;;2.7;;
64022;SDS011;50264;52.088;5.296;2023-03-24T03:38:10;6.6;;;2.1;;
64022;SDS011;50264;52.088;5.296;2023-03-24T03:39:53;5.9;;;2.7;;
64022;SDS011;50264;52.088;5.296;2023-03-24T03:41:33;10.7;;;2.8;;
64022;SDS011;50264;52.088;5.296;2023-03-24T03:46:21;6.5;;;3.1;;
64022;SDS011;50264;52.088;5.296;2023-03-24T03:47:57;7.4;;;3.2;;
64022;SDS011;50264;52.088;5.296;2023-03-24T03:51:11;6.6;;;2.9;;
64022;SDS011;50264;52.088;5.296;2023-03-24T03:52:49;13.7;;;3.2;;
64022;SDS011;50264;52.088;5.296;2023-03-24T03:54:25;8.4;;;3.4;;
64022;SDS011;50264;52.088;5.296;2023-03-24T03:56:04;7.2;;;2.9;;
64022;SDS011;50264;52.088;5.296;2023-03-24T03:59:24;10.4;;;3.4;;
64022;SDS011;50264;52.088;5.296;2023-03-24T04:01:02;8.1;;;3.2;;
64022;SDS011;50264;52.088;5.296;2023-03-24T04:02:42;8.9;;;3.0;;
64022;SDS011;50264;52.088;5.296;2023-03-24T04:04:52;8.71;;;2.9;;
64022;SDS011;50264;52.088;5.296;2023-03-24T04:07:07;11.6;;;2.8;;
64022;SDS011;50264;52.088;5.296;2023-03-24T04:08:49;6.4;;;2.7;;
64022;SDS011;50264;52.088;5.296;2023-03-24T04:13:27;9.21;;;2.5;;
64022;SDS011;50264;52.088;5.296;2023-03-24T04:15:20;10.9;;;3.0;;
64022;SDS011;50264;52.088;5.296;2023-03-24T04:17:10;7.9;;;3.1;;
64022;SDS011;50264;52.088;5.296;2023-03-24T04:19:04;10.3;;;3.4;;
64022;SDS011;50264;52.088;5.296;2023-03-24T04:22:47;11.0;;;3.1;;
64022;SDS011;50264;52.088;5.296;2023-03-24T04:24:39;16.61;;;3.1;;
64022;SDS011;50264;52.088;5.296;2023-03-24T04:26:23;16.61;;;3.1;;
64022;SDS011;50264;52.088;5.296;2023-03-24T04:28:07;8.5;;;3.1;;
64022;SDS011;50264;52.088;5.296;2023-03-24T04:29:59;14.8;;;3.9;;
64022;SDS011;50264;52.088;5.296;2023-03-24T04:31:43;11.6;;;3.7;;
64022;SDS011;50264;52.088;5.296;2023-03-24T04:35:17;15.8;;;3.8;;
64022;SDS011;50264;52.088;5.296;2023-03-24T04:37:00;18.61;;;4.1;;
64022;SDS011;50264;52.088;5.296;2023-03-24T04:38:42;15.1;;;4.5;;
64022;SDS011;50264;52.088;5.296;2023-03-24T04:40:22;17.8;;;4.5;;
64022;SDS011;50264;52.088;5.296;2023-03-24T04:42:00;14.2;;;4.5;;
64022;SDS011;50264;52.088;5.296;2023-03-24T04:45:15;19.5;;;4.41;;
64022;SDS011;50264;52.088;5.296;2023-03-24T04:46:53;16.5;;;4.7;;
64022;SDS011;50264;52.088;5.296;2023-03-24T04:48:32;16.11;;;4.2;;
64022;SDS011;50264;52.088;5.296;2023-03-24T04:51:47;14.4;;;4.3;;
64022;SDS011;50264;52.088;5.296;2023-03-24T04:53:24;14.4;;;4.3;;
64022;SDS011;50264;52.088;5.296;2023-03-24T04:55:01;20.9;;;4.7;;
64022;SDS011;50264;52.088;5.296;2023-03-24T04:56:46;16.0;;;4.1;;
64022;SDS011;50264;52.088;5.296;2023-03-24T05:00:01;20.8;;;4.5;;
64022;SDS011;50264;52.088;5.296;2023-03-24T05:01:37;16.8;;;4.61;;
64022;SDS011;50264;52.088;5.296;2023-03-24T05:03:14;16.0;;;4.61;;
64022;SDS011;50264;52.088;5.296;2023-03-24T05:06:27;16.4;;;4.1;;
64022;SDS011;50264;52.088;5.296;2023-03-24T05:08:04;20.0;;;4.91;;
64022;SDS011;50264;52.088;5.296;2023-03-24T05:09:40;22.9;;;4.91;;
64022;SDS011;50264;52.088;5.296;2023-03-24T05:11:16;25.1;;;5.2;;
64022;SDS011;50264;52.088;5.296;2023-03-24T05:14:29;19.8;;;4.3;;
64022;SDS011;50264;52.088;5.296;2023-03-24T05:16:06;16.7;;;4.41;;
64022;SDS011;50264;52.088;5.296;2023-03-24T05:17:43;15.1;;;4.5;;
64022;SDS011;50264;52.088;5.296;2023-03-24T05:20:55;19.7;;;4.3;;
64022;SDS011;50264;52.088;5.296;2023-03-24T05:22:31;18.61;;;4.61;;
64022;SDS011;50264;52.088;5.296;2023-03-24T05:24:07;16.4;;;4.3;;
64022;SDS011;50264;52.088;5.296;2023-03-24T05:27:21;16.7;;;4.8;;
64022;SDS011;50264;52.088;5.296;2023-03-24T05:28:57;16.8;;;4.61;;
64022;SDS011;50264;52.088;5.296;2023-03-24T05:30:34;28.2;;;5.2;;
64022;SDS011;50264;52.088;5.296;2023-03-24T05:32:10;19.41;;;4.41;;
64022;SDS011;50264;52.088;5.296;2023-03-24T05:35:22;18.0;;;5.0;;
64022;SDS011;50264;52.088;5.296;2023-03-24T05:36:58;28.0;;;5.2;;
64022;SDS011;50264;52.088;5.296;2023-03-24T05:38:34;27.2;;;4.8;;
64022;SDS011;50264;52.088;5.296;2023-03-24T05:41:48;21.7;;;5.6;;
64022;SDS011;50264;52.088;5.296;2023-03-24T05:43:24;24.3;;;5.5;;
64022;SDS011;50264;52.088;5.296;2023-03-24T05:45:01;23.0;;;5.4;;
64022;SDS011;50264;52.088;5.296;2023-03-24T05:48:13;22.9;;;5.7;;
64022;SDS011;50264;52.088;5.296;2023-03-24T05:49:49;27.5;;;6.0;;
64022;SDS011;50264;52.088;5.296;2023-03-24T05:51:25;22.0;;;5.2;;
64022;SDS011;50264;52.088;5.296;2023-03-24T05:56:15;19.5;;;4.91;;
64022;SDS011;50264;52.088;5.296;2023-03-24T05:57:51;32.3;;;6.7;;
64022;SDS011;50264;52.088;5.296;2023-03-24T05:59:27;31.8;;;5.9;;
64022;SDS011;50264;52.088;5.296;2023-03-24T06:02:43;26.3;;;6.1;;
64022;SDS011;50264;52.088;5.296;2023-03-24T06:04:21;18.8;;;5.11;;
64022;SDS011;50264;52.088;5.296;2023-03-24T06:05:58;28.2;;;5.7;;
64022;SDS011;50264;52.088;5.296;2023-03-24T06:09:14;23.6;;;5.4;;
64022;SDS011;50264;52.088;5.296;2023-03-24T06:10:50;24.9;;;5.5;;
64022;SDS011;50264;52.088;5.296;2023-03-24T06:12:26;25.1;;;5.7;;
64022;SDS011;50264;52.088;5.296;2023-03-24T06:14:02;25.5;;;4.7;;
64022;SDS011;50264;52.088;5.296;2023-03-24T06:17:15;27.4;;;5.3;;
64022;SDS011;50264;52.088;5.296;2023-03-24T06:18:51;28.7;;;5.5;;
64022;SDS011;50264;52.088;5.296;2023-03-24T06:20:28;22.6;;;5.2;;
64022;SDS011;50264;52.088;5.296;2023-03-24T06:23:40;18.91;;;5.0;;
64022;SDS011;50264;52.088;5.296;2023-03-24T06:25:17;22.8;;;5.2;;
64022;SDS011;50264;52.088;5.296;2023-03-24T06:26:54;23.3;;;5.4;;
64022;SDS011;50264;52.088;5.296;2023-03-24T06:30:06;37.21;;;5.8;;
64022;SDS011;50264;52.088;5.296;2023-03-24T06:31:43;29.8;;;5.4;;
64022;SDS011;50264;52.088;5.296;2023-03-24T06:33:19;20.6;;;5.4;;
64022;SDS011;50264;52.088;5.296;2023-03-24T06:34:55;25.5;;;5.4;;
64022;SDS011;50264;52.088;5.296;2023-03-24T06:38:08;22.1;;;4.8;;
64022;SDS011;50264;52.088;5.296;2023-03-24T06:39:44;22.3;;;5.3;;
64022;SDS011;50264;52.088;5.296;2023-03-24T06:41:20;25.2;;;4.91;;
64022;SDS011;50264;52.088;5.296;2023-03-24T06:44:33;25.2;;;4.91;;
64022;SDS011;50264;52.088;5.296;2023-03-24T06:46:09;19.5;;;5.4;;
64022;SDS011;50264;52.088;5.296;2023-03-24T06:51:01;15.7;;;4.3;;
64022;SDS011;50264;52.088;5.296;2023-03-24T06:52:37;21.8;;;4.91;;
64022;SDS011;50264;52.088;5.296;2023-03-24T06:54:13;17.7;;;4.91;;
64022;SDS011;50264;52.088;5.296;2023-03-24T06:57:25;15.0;;;4.5;;
64022;SDS011;50264;52.088;5.296;2023-03-24T06:59:01;19.91;;;4.61;;
64022;SDS011;50264;52.088;5.296;2023-03-24T07:00:39;14.8;;;4.0;;
64022;SDS011;50264;52.088;5.296;2023-03-24T07:02:15;15.8;;;4.3;;
64022;SDS011;50264;52.088;5.296;2023-03-24T07:05:28;17.3;;;4.61;;
64022;SDS011;50264;52.088;5.296;2023-03-24T07:07:04;15.0;;;4.7;;
64022;SDS011;50264;52.088;5.296;2023-03-24T07:08:40;23.0;;;4.5;;
64022;SDS011;50264;52.088;5.296;2023-03-24T07:11:53;19.8;;;4.1;;
64022;SDS011;50264;52.088;5.296;2023-03-24T07:13:29;12.8;;;3.9;;
64022;SDS011;50264;52.088;5.296;2023-03-24T07:15:05;17.3;;;4.2;;
64022;SDS011;50264;52.088;5.296;2023-03-24T07:18:19;18.3;;;4.91;;
64022;SDS011;50264;52.088;5.296;2023-03-24T07:19:55;15.4;;;4.3;;
64022;SDS011;50264;52.088;5.296;2023-03-24T07:21:31;14.3;;;3.9;;
64022;SDS011;50264;52.088;5.296;2023-03-24T07:23:08;14.1;;;4.61;;
64022;SDS011;50264;52.088;5.296;2023-03-24T07:26:20;14.6;;;4.2;;
64022;SDS011;50264;52.088;5.296;2023-03-24T07:27:56;23.1;;;5.0;;
64022;SDS011;50264;52.088;5.296;2023-03-24T07:29:32;14.7;;;4.1;;
64022;SDS011;50264;52.088;5.296;2023-03-24T07:32:44;16.4;;;4.3;;
64022;SDS011;50264;52.088;5.296;2023-03-24T07:34:21;19.3;;;4.5;;
64022;SDS011;50264;52.088;5.296;2023-03-24T07:35:57;17.2;;;4.2;;
64022;SDS011;50264;52.088;5.296;2023-03-24T07:39:09;18.2;;;4.2;;
64022;SDS011;50264;52.088;5.296;2023-03-24T07:40:44;17.0;;;4.8;;
64022;SDS011;50264;52.088;5.296;2023-03-24T07:42:20;20.3;;;4.41;;
64022;SDS011;50264;52.088;5.296;2023-03-24T07:45:33;27.1;;;5.2;;
64022;SDS011;50264;52.088;5.296;2023-03-24T07:47:09;22.6;;;4.8;;
64022;SDS011;50264;52.088;5.296;2023-03-24T07:48:45;18.41;;;4.61;;
64022;SDS011;50264;52.088;5.296;2023-03-24T07:50:21;23.5;;;4.91;;
64022;SDS011;50264;52.088;5.296;2023-03-24T07:53:33;24.2;;;4.91;;
64022;SDS011;50264;52.088;5.296;2023-03-24T07:55:10;15.9;;;4.7;;
64022;SDS011;50264;52.088;5.296;2023-03-24T07:56:47;22.7;;;4.8;;
64022;SDS011;50264;52.088;5.296;2023-03-24T08:01:35;19.11;;;4.2;;
64022;SDS011;50264;52.088;5.296;2023-03-24T08:03:12;25.8;;;4.7;;
64022;SDS011;50264;52.088;5.296;2023-03-24T08:06:26;16.8;;;4.3;;
64022;SDS011;50264;52.088;5.296;2023-03-24T08:08:02;24.6;;;4.41;;
64022;SDS011;50264;52.088;5.296;2023-03-24T08:09:38;17.61;;;4.61;;
64022;SDS011;50264;52.088;5.296;2023-03-24T08:11:14;14.2;;;4.3;;
64022;SDS011;50264;52.088;5.296;2023-03-24T08:14:27;25.0;;;5.3;;
64022;SDS011;50264;52.088;5.296;2023-03-24T08:16:03;13.8;;;3.9;;
64022;SDS011;50264;52.088;5.296;2023-03-24T08:17:40;21.4;;;4.8;;
64022;SDS011;50264;52.088;5.296;2023-03-24T08:20:53;17.11;;;4.91;;
64022;SDS011;50264;52.088;5.296;2023-03-24T08:22:31;21.4;;;5.0;;
64022;SDS011;50264;52.088;5.296;2023-03-24T08:24:07;12.5;;;4.3;;
64022;SDS011;50264;52.088;5.296;2023-03-24T08:27:19;16.9;;;4.0;;
64022;SDS011;50264;52.088;5.296;2023-03-24T08:28:56;14.1;;;4.61;;
64022;SDS011;50264;52.088;5.296;2023-03-24T08:30:32;21.1;;;4.8;;
64022;SDS011;50264;52.088;5.296;2023-03-24T08:32:08;14.5;;;4.3;;
64022;SDS011;50264;52.088;5.296;2023-03-24T08:35:21;13.6;;;4.1;;
64022;SDS011;50264;52.088;5.296;2023-03-24T08:37:02;19.3;;;4.41;;
64022;SDS011;50264;52.088;5.296;2023-03-24T08:38:38;25.4;;;4.5;;
64022;SDS011;50264;52.088;5.296;2023-03-24T08:41:54;14.3;;;4.0;;
64022;SDS011;50264;52.088;5.296;2023-03-24T08:43:30;14.8;;;4.5;;
64022;SDS011;50264;52.088;5.296;2023-03-24T08:45:10;23.9;;;5.0;;
64022;SDS011;50264;52.088;5.296;2023-03-24T08:46:47;14.4;;;4.61;;
64022;SDS011;50264;52.088;5.296;2023-03-24T08:50:03;15.5;;;4.8;;
64022;SDS011;50264;52.088;5.296;2023-03-24T08:51:40;14.4;;;4.41;;
64022;SDS011;50264;52.088;5.296;2023-03-24T08:53:19;19.3;;;4.41;;
64022;SDS011;50264;52.088;5.296;2023-03-24T08:56:31;23.6;;;4.7;;
64022;SDS011;50264;52.088;5.296;2023-03-24T08:58:07;17.7;;;4.7;;
64022;SDS011;50264;52.088;5.296;2023-03-24T08:59:47;12.0;;;3.9;;
64022;SDS011;50264;52.088;5.296;2023-03-24T09:01:23;14.8;;;4.1;;
64022;SDS011;50264;52.088;5.296;2023-03-24T09:04:36;21.4;;;5.11;;
64022;SDS011;50264;52.088;5.296;2023-03-24T09:06:12;15.2;;;4.5;;
64022;SDS011;50264;52.088;5.296;2023-03-24T09:07:49;19.2;;;4.41;;
64022;SDS011;50264;52.088;5.296;2023-03-24T09:11:02;21.5;;;4.61;;
64022;SDS011;50264;52.088;5.296;2023-03-24T09:12:40;17.7;;;4.41;;
64022;SDS011;50264;52.088;5.296;2023-03-24T09:14:18;17.41;;;4.41;;
64022;SDS011;50264;52.088;5.296;2023-03-24T09:17:34;15.1;;;3.8;;
64022;SDS011;50264;52.088;5.296;2023-03-24T09:19:11;22.1;;;4.41;;
64022;SDS011;50264;52.088;5.296;2023-03-24T09:20:47;16.4;;;4.0;;
64022;SDS011;50264;52.088;5.296;2023-03-24T09:22:24;17.5;;;3.9;;
64022;SDS011;50264;52.088;5.296;2023-03-24T09:25:37;15.5;;;3.8;;
64022;SDS011;50264;52.088;5.296;2023-03-24T09:27:14;13.6;;;3.8;;
64022;SDS011;50264;52.088;5.296;2023-03-24T09:28:51;14.1;;;3.9;;
64022;SDS011;50264;52.088;5.296;2023-03-24T09:32:03;19.91;;;4.2;;
64022;SDS011;50264;52.088;5.296;2023-03-24T09:33:39;20.3;;;4.61;;
64022;SDS011;50264;52.088;5.296;2023-03-24T09:35:15;18.3;;;4.7;;
64022;SDS011;50264;52.088;5.296;2023-03-24T09:38:28;21.3;;;4.7;;
64022;SDS011;50264;52.088;5.296;2023-03-24T09:40:06;12.8;;;3.5;;
64022;SDS011;50264;52.088;5.296;2023-03-24T09:41:43;17.8;;;4.3;;
64022;SDS011;50264;52.088;5.296;2023-03-24T09:43:21;15.3;;;4.2;;
64022;SDS011;50264;52.088;5.296;2023-03-24T09:46:47;16.3;;;4.1;;
64022;SDS011;50264;52.088;5.296;2023-03-24T09:48:29;12.1;;;3.8;;
64022;SDS011;50264;52.088;5.296;2023-03-24T09:50:15;11.7;;;3.7;;
64022;SDS011;50264;52.088;5.296;2023-03-24T09:51:55;21.0;;;4.2;;
64022;SDS011;50264;52.088;5.296;2023-03-24T09:55:23;14.4;;;3.7;;
64022;SDS011;50264;52.088;5.296;2023-03-24T09:57:02;11.6;;;3.7;;
64022;SDS011;50264;52.088;5.296;2023-03-24T09:58:50;12.6;;;3.0;;
64022;SDS011;50264;52.088;5.296;2023-03-24T10:00:35;11.5;;;3.5;;
64022;SDS011;50264;52.088;5.296;2023-03-24T10:02:13;15.9;;;3.7;;
64022;SDS011;50264;52.088;5.296;2023-03-24T10:05:33;19.2;;;4.0;;
64022;SDS011;50264;52.088;5.296;2023-03-24T10:07:17;10.6;;;3.1;;
64022;SDS011;50264;52.088;5.296;2023-03-24T10:09:07;17.0;;;3.7;;
64022;SDS011;50264;52.088;5.296;2023-03-24T10:10:56;16.5;;;3.5;;
64022;SDS011;50264;52.088;5.296;2023-03-24T10:12:38;12.8;;;3.6;;
64022;SDS011;50264;52.088;5.296;2023-03-24T10:16:17;17.41;;;3.9;;
64022;SDS011;50264;52.088;5.296;2023-03-24T10:18:07;14.0;;;3.7;;
64022;SDS011;50264;52.088;5.296;2023-03-24T10:20:09;20.5;;;3.7;;
64022;SDS011;50264;52.088;5.296;2023-03-24T10:21:57;12.1;;;3.3;;
64022;SDS011;50264;52.088;5.296;2023-03-24T10:23:43;14.3;;;3.7;;
64022;SDS011;50264;52.088;5.296;2023-03-24T10:25:34;19.7;;;4.1;;
64022;SDS011;50264;52.088;5.296;2023-03-24T10:27:21;13.2;;;3.8;;
64022;SDS011;50264;52.088;5.296;2023-03-24T10:31:03;16.61;;;4.0;;
64022;SDS011;50264;52.088;5.296;2023-03-24T10:32:45;14.9;;;3.6;;
64022;SDS011;50264;52.088;5.296;2023-03-24T10:34:22;17.7;;;4.3;;
64022;SDS011;50264;52.088;5.296;2023-03-24T10:36:03;20.9;;;3.6;;
64022;SDS011;50264;52.088;5.296;2023-03-24T10:37:43;17.61;;;4.1;;
64022;SDS011;50264;52.088;5.296;2023-03-24T10:40:56;14.4;;;4.41;;
64022;SDS011;50264;52.088;5.296;2023-03-24T10:42:34;16.2;;;4.1;;
64022;SDS011;50264;52.088;5.296;2023-03-24T10:44:11;15.6;;;4.41;;
64022;SDS011;50264;52.088;5.296;2023-03-24T10:49:07;16.7;;;4.0;;
64022;SDS011;50264;52.088;5.296;2023-03-24T10:50:51;15.9;;;4.61;;
64022;SDS011;50264;52.088;5.296;2023-03-24T10:52:37;20.7;;;3.7;;
64022;SDS011;50264;52.088;5.296;2023-03-24T10:55:53;15.6;;;4.2;;
64022;SDS011;50264;52.088;5.296;2023-03-24T10:57:29;11.8;;;3.8;;
64022;SDS011;50264;52.088;5.296;2023-03-24T10:59:13;17.3;;;3.9;;
64022;SDS011;50264;52.088;5.296;2023-03-24T11:00:54;17.41;;;3.6;;
64022;SDS011;50264;52.088;5.296;2023-03-24T11:04:11;21.0;;;4.0;;
64022;SDS011;50264;52.088;5.296;2023-03-24T11:05:56;15.4;;;4.1;;
64022;SDS011;50264;52.088;5.296;2023-03-24T11:07:34;15.4;;;3.7;;
64022;SDS011;50264;52.088;5.296;2023-03-24T11:09:17;13.8;;;4.0;;
64022;SDS011;50264;52.088;5.296;2023-03-24T11:12:33;17.7;;;3.8;;
64022;SDS011;50264;52.088;5.296;2023-03-24T11:14:17;8.2;;;3.5;;
64022;SDS011;50264;52.088;5.296;2023-03-24T11:16:03;13.1;;;3.3;;
64022;SDS011;50264;52.088;5.296;2023-03-24T11:17:46;17.3;;;4.0;;
64022;SDS011;50264;52.088;5.296;2023-03-24T11:19:26;15.2;;;4.2;;
64022;SDS011;50264;52.088;5.296;2023-03-24T11:22:41;16.8;;;4.3;;
64022;SDS011;50264;52.088;5.296;2023-03-24T11:24:17;14.2;;;3.5;;
64022;SDS011;50264;52.088;5.296;2023-03-24T11:26:05;10.21;;;3.7;;
64022;SDS011;50264;52.088;5.296;2023-03-24T11:27:50;14.9;;;3.7;;
64022;SDS011;50264;52.088;5.296;2023-03-24T11:31:08;19.0;;;3.4;;
64022;SDS011;50264;52.088;5.296;2023-03-24T11:32:47;15.0;;;4.1;;
64022;SDS011;50264;52.088;5.296;2023-03-24T11:34:23;9.21;;;3.6;;
64022;SDS011;50264;52.088;5.296;2023-03-24T11:38:14;10.4;;;3.4;;
64022;SDS011;50264;52.088;5.296;2023-03-24T11:40:04;9.1;;;3.0;;
64022;SDS011;50264;52.088;5.296;2023-03-24T11:42:02;9.1;;;3.2;;
64022;SDS011;50264;52.088;5.296;2023-03-24T11:43:50;12.4;;;3.2;;
64022;SDS011;50264;52.088;5.296;2023-03-24T11:45:42;11.2;;;3.3;;
64022;SDS011;50264;52.088;5.296;2023-03-24T11:47:23;10.8;;;3.4;;
64022;SDS011;50264;52.088;5.296;2023-03-24T11:49:05;10.5;;;3.0;;
64022;SDS011;50264;52.088;5.296;2023-03-24T11:52:23;12.3;;;3.7;;
64022;SDS011;50264;52.088;5.296;2023-03-24T11:54:04;8.4;;;3.0;;
64022;SDS011;50264;52.088;5.296;2023-03-24T11:55:49;7.2;;;2.8;;
64022;SDS011;50264;52.088;5.296;2023-03-24T11:57:38;12.2;;;3.2;;
64022;SDS011;50264;52.088;5.296;2023-03-24T11:59:26;10.0;;;3.0;;
64022;SDS011;50264;52.088;5.296;2023-03-24T12:03:07;11.1;;;3.2;;
64022;SDS011;50264;52.088;5.296;2023-03-24T12:05:20;13.7;;;3.3;;
64022;SDS011;50264;52.088;5.296;2023-03-24T12:07:37;11.4;;;2.9;;
64022;SDS011;50264;52.088;5.296;2023-03-24T12:10:21;8.81;;;2.8;;
64022;SDS011;50264;52.088;5.296;2023-03-24T12:12:12;11.0;;;2.9;;
64022;SDS011;50264;52.088;5.296;2023-03-24T12:14:10;9.0;;;2.6;;
64022;SDS011;50264;52.088;5.296;2023-03-24T12:17:44;12.7;;;3.4;;
64022;SDS011;50264;52.088;5.296;2023-03-24T12:19:36;10.21;;;3.4;;
64022;SDS011;50264;52.088;5.296;2023-03-24T12:21:42;13.6;;;2.9;;
64022;SDS011;50264;52.088;5.296;2023-03-24T12:23:32;16.7;;;3.1;;
64022;SDS011;50264;52.088;5.296;2023-03-24T12:25:24;8.0;;;2.5;;
64022;SDS011;50264;52.088;5.296;2023-03-24T12:27:14;13.6;;;3.8;;
64022;SDS011;50264;52.088;5.296;2023-03-24T12:29:10;11.9;;;3.1;;
64022;SDS011;50264;52.088;5.296;2023-03-24T12:31:29;13.9;;;2.6;;
64022;SDS011;50264;52.088;5.296;2023-03-24T12:34:22;9.71;;;2.8;;
64022;SDS011;50264;52.088;5.296;2023-03-24T12:37:10;7.7;;;2.9;;
64022;SDS011;50264;52.088;5.296;2023-03-24T12:39:00;10.5;;;3.2;;
64022;SDS011;50264;52.088;5.296;2023-03-24T12:43:08;13.3;;;2.7;;
64022;SDS011;50264;52.088;5.296;2023-03-24T12:45:04;14.2;;;3.3;;
64022;SDS011;50264;52.088;5.296;2023-03-24T12:46:57;10.21;;;3.1;;
64022;SDS011;50264;52.088;5.296;2023-03-24T12:48:50;10.8;;;3.0;;
64022;SDS011;50264;52.088;5.296;2023-03-24T12:51:32;9.81;;;3.1;;
64022;SDS011;50264;52.088;5.296;2023-03-24T12:55:15;14.2;;;2.7;;
64022;SDS011;50264;52.088;5.296;2023-03-24T12:56:56;10.5;;;2.6;;
64022;SDS011;50264;52.088;5.296;2023-03-24T12:58:38;12.9;;;2.8;;
64022;SDS011;50264;52.088;5.296;2023-03-24T13:00:20;15.9;;;3.4;;
64022;SDS011;50264;52.088;5.296;2023-03-24T13:02:01;10.1;;;2.8;;
64022;SDS011;50264;52.088;5.296;2023-03-24T13:05:45;11.6;;;3.4;;
64022;SDS011;50264;52.088;5.296;2023-03-24T13:07:25;9.81;;;2.9;;
64022;SDS011;50264;52.088;5.296;2023-03-24T13:09:05;10.8;;;3.0;;
64022;SDS011;50264;52.088;5.296;2023-03-24T13:10:49;12.4;;;3.3;;
64022;SDS011;50264;52.088;5.296;2023-03-24T13:12:30;11.2;;;3.0;;
64022;SDS011;50264;52.088;5.296;2023-03-24T13:16:03;11.2;;;3.1;;
64022;SDS011;50264;52.088;5.296;2023-03-24T13:17:45;11.0;;;2.9;;